Time;durP1;ratioP1;P1;durP2;ratioP2;P2;SDS_P1;SDS_P2;PMS_P1;PMS_P2;Temp;Humidity;BMP_temperature;BMP_pressure;BME280_temperature;BME280_humidity;BME280_pressure;Samples;Min_cycle;Max_cycle;Signal;HPM_P1;HPM_P2
2022/11/21 00:00:48;;;;;;;62.00;29.93;;;-1.30;99.90;;;;;;5026451;28;20242;-68
2022/11/21 00:03:16;;;;;;;56.87;30.20;;;-1.30;99.90;;;;;;5027822;28;20208;-67
2022/11/21 00:05:44;;;;;;;60.53;29.70;;;-1.30;99.90;;;;;;5027434;28;20199;-67
2022/11/21 00:08:12;;;;;;;56.03;31.10;;;-1.30;99.90;;;;;;5025316;28;20584;-70
2022/11/21 00:10:40;;;;;;;57.23;30.23;;;-1.30;99.90;;;;;;5020222;28;20202;-70
2022/11/21 00:13:11;;;;;;;56.40;28.13;;;-1.30;99.90;;;;;;5029129;28;20284;-68
2022/11/21 00:15:38;;;;;;;56.70;30.17;;;-1.30;99.90;;;;;;5025227;28;20238;-68
2022/11/21 00:18:05;;;;;;;59.30;30.87;;;-1.30;99.90;;;;;;5026835;28;20595;-67
2022/11/21 00:20:35;;;;;;;55.73;29.73;;;-1.30;99.90;;;;;;5026777;28;20710;-69
2022/11/21 00:23:02;;;;;;;58.20;29.00;;;-1.30;99.90;;;;;;5028518;28;20719;-70
2022/11/21 00:25:29;;;;;;;57.70;29.37;;;-1.20;99.90;;;;;;5026769;28;20206;-69
2022/11/21 00:27:56;;;;;;;57.83;29.87;;;-1.20;99.90;;;;;;5026931;28;20206;-68
2022/11/21 00:30:23;;;;;;;55.10;29.07;;;-1.20;99.90;;;;;;5028094;28;20290;-69
2022/11/21 00:32:50;;;;;;;59.00;29.73;;;-1.20;99.90;;;;;;5031462;28;20566;-68
2022/11/21 00:35:17;;;;;;;55.33;29.60;;;-1.20;99.90;;;;;;5030013;28;20215;-68
2022/11/21 00:37:47;;;;;;;56.53;30.93;;;-1.20;99.90;;;;;;5032311;28;20199;-68
2022/11/21 00:40:14;;;;;;;52.77;29.63;;;-1.20;99.90;;;;;;5030239;28;20211;-69
2022/11/21 00:42:42;;;;;;;57.37;31.40;;;-1.20;99.90;;;;;;5030736;28;20543;-69
2022/11/21 00:45:09;;;;;;;62.57;32.30;;;-1.20;99.90;;;;;;5026422;28;20212;-68
2022/11/21 00:47:36;;;;;;;54.40;30.57;;;-1.10;99.90;;;;;;5027005;28;20211;-68
2022/11/21 00:50:03;;;;;;;59.10;31.10;;;-1.10;99.90;;;;;;5031491;28;20214;-68
2022/11/21 00:52:30;;;;;;;53.77;30.60;;;-1.10;99.90;;;;;;5029574;28;20206;-68
2022/11/21 00:54:58;;;;;;;53.70;29.60;;;-1.10;99.90;;;;;;5031431;28;20743;-68
2022/11/21 00:57:25;;;;;;;54.60;30.27;;;-1.10;99.90;;;;;;5031411;28;20597;-69
2022/11/21 00:59:51;;;;;;;60.40;30.00;;;-1.10;99.90;;;;;;5029598;28;20239;-69
2022/11/21 01:02:18;;;;;;;58.87;31.13;;;-1.10;99.90;;;;;;5023358;28;20614;-68
2022/11/21 01:04:45;;;;;;;59.57;32.33;;;-1.10;99.90;;;;;;5031122;28;20574;-67
2022/11/21 01:07:13;;;;;;;61.23;31.60;;;-1.20;99.90;;;;;;5030674;28;20214;-68
2022/11/21 01:09:40;;;;;;;54.13;29.90;;;-1.10;99.90;;;;;;5029783;28;20214;-67
2022/11/21 01:12:08;;;;;;;56.77;31.67;;;-1.10;99.90;;;;;;5031353;28;20205;-68
2022/11/21 01:14:35;;;;;;;58.90;29.87;;;-1.10;99.90;;;;;;5030393;28;20266;-69
2022/11/21 01:17:01;;;;;;;56.07;30.07;;;-1.00;99.90;;;;;;5030171;28;20199;-69
2022/11/21 01:19:28;;;;;;;53.80;29.97;;;-1.00;99.90;;;;;;5031311;28;20663;-69
2022/11/21 01:21:55;;;;;;;57.33;30.77;;;-1.00;99.90;;;;;;5029973;28;20635;-70
2022/11/21 01:24:22;;;;;;;57.53;30.57;;;-1.00;99.90;;;;;;5028608;28;20575;-67
2022/11/21 01:26:49;;;;;;;55.77;30.23;;;-1.00;99.90;;;;;;5030894;28;20206;-69
2022/11/21 01:29:17;;;;;;;57.80;30.00;;;-1.00;99.90;;;;;;5030061;28;20210;-67
2022/11/21 01:31:44;;;;;;;58.40;30.33;;;-1.00;99.90;;;;;;5029938;28;20209;-67
2022/11/21 01:34:13;;;;;;;58.83;30.63;;;-1.00;99.90;;;;;;5029342;28;20207;-67
2022/11/21 01:36:40;;;;;;;56.20;30.80;;;-1.00;99.90;;;;;;5025336;28;20214;-69
2022/11/21 01:39:08;;;;;;;54.70;30.00;;;-1.10;99.90;;;;;;5030041;28;20218;-67
2022/11/21 01:41:37;;;;;;;54.53;29.93;;;-1.10;99.90;;;;;;5029755;28;20233;-68
2022/11/21 01:44:14;;;;;;;63.40;31.40;;;-1.10;99.90;;;;;;5029470;28;20211;-67
2022/11/21 01:46:43;;;;;;;54.17;29.07;;;-1.20;99.90;;;;;;5030906;28;20206;-67
2022/11/21 01:49:12;;;;;;;63.23;30.17;;;-1.20;99.90;;;;;;5029041;28;20260;-69
2022/11/21 01:51:44;;;;;;;56.33;30.23;;;-1.20;99.90;;;;;;5029336;28;20285;-67
2022/11/21 01:54:17;;;;;;;54.90;28.63;;;-1.20;99.90;;;;;;5030442;28;20207;-67
2022/11/21 01:56:47;;;;;;;54.77;31.30;;;-1.20;99.90;;;;;;5031235;28;20651;-68
2022/11/21 01:59:19;;;;;;;55.03;29.87;;;-1.20;99.90;;;;;;5029088;28;20230;-67
2022/11/21 02:01:50;;;;;;;56.73;30.87;;;-1.30;99.90;;;;;;5024187;28;20215;-68
2022/11/21 02:04:17;;;;;;;59.80;32.37;;;-1.30;99.90;;;;;;5027159;28;20207;-70
2022/11/21 02:06:44;;;;;;;56.40;30.53;;;-1.30;99.90;;;;;;5028203;28;20638;-67
2022/11/21 02:09:11;;;;;;;62.80;31.50;;;-1.30;99.90;;;;;;5028967;28;20203;-68
2022/11/21 02:11:42;;;;;;;57.27;31.67;;;-1.30;99.90;;;;;;5028976;28;20202;-68
2022/11/21 02:14:09;;;;;;;56.13;30.03;;;-1.30;99.90;;;;;;5029005;28;20245;-68
2022/11/21 02:16:36;;;;;;;55.73;29.67;;;-1.40;99.90;;;;;;5029998;28;20198;-67
2022/11/21 02:19:04;;;;;;;58.33;30.80;;;-1.40;99.90;;;;;;5026801;28;20218;-68
2022/11/21 02:21:41;;;;;;;56.97;30.03;;;-1.40;99.90;;;;;;5027990;28;20226;-66
2022/11/21 02:24:17;;;;;;;60.90;31.27;;;-1.40;99.90;;;;;;5025708;28;20217;-68
2022/11/21 02:26:46;;;;;;;61.90;31.17;;;-1.40;99.90;;;;;;5030358;28;20213;-67
2022/11/21 02:29:14;;;;;;;58.77;30.67;;;-1.40;99.90;;;;;;5028245;28;20280;-68
2022/11/21 02:31:41;;;;;;;55.77;29.93;;;-1.40;99.90;;;;;;5028679;28;20210;-68
2022/11/21 02:34:07;;;;;;;55.93;31.53;;;-1.50;99.90;;;;;;5029021;28;20268;-67
2022/11/21 02:36:41;;;;;;;58.67;30.27;;;-1.50;99.90;;;;;;5028646;28;20237;-67
2022/11/21 02:39:13;;;;;;;53.17;28.83;;;-1.50;99.90;;;;;;5027435;28;20730;-67
2022/11/21 02:41:48;;;;;;;62.73;30.57;;;-1.50;99.90;;;;;;5030079;28;20218;-67
2022/11/21 02:44:22;;;;;;;57.83;30.20;;;-1.40;99.90;;;;;;5027751;28;20298;-68
2022/11/21 02:46:51;;;;;;;59.07;31.33;;;-1.50;99.90;;;;;;5029696;28;20198;-68
2022/11/21 02:49:24;;;;;;;56.27;29.40;;;-1.50;99.90;;;;;;5028305;28;20665;-68
2022/11/21 02:51:51;;;;;;;60.13;30.90;;;-1.50;99.90;;;;;;5028535;28;20205;-68
2022/11/21 02:54:17;;;;;;;55.37;29.37;;;-1.50;99.90;;;;;;5026877;28;20213;-68
2022/11/21 02:56:45;;;;;;;57.30;30.93;;;-1.50;99.90;;;;;;5027453;28;20207;-68
2022/11/21 02:59:12;;;;;;;65.77;31.87;;;-1.50;99.90;;;;;;5027826;28;20234;-69
2022/11/21 03:01:39;;;;;;;54.87;30.50;;;-1.50;99.90;;;;;;5028047;28;20229;-68
2022/11/21 03:04:06;;;;;;;60.70;30.47;;;-1.50;99.90;;;;;;5028038;28;20594;-67
2022/11/21 03:06:32;;;;;;;62.70;30.43;;;-1.50;99.90;;;;;;5028349;28;20214;-68
2022/11/21 03:08:59;;;;;;;59.93;31.77;;;-1.50;99.90;;;;;;5032071;28;20579;-66
2022/11/21 03:11:26;;;;;;;60.57;31.03;;;-1.60;99.90;;;;;;5028468;28;20207;-66
2022/11/21 03:13:54;;;;;;;58.87;31.93;;;-1.60;99.90;;;;;;5029138;28;20663;-68
2022/11/21 03:16:21;;;;;;;56.20;31.47;;;-1.60;99.90;;;;;;5027529;28;20651;-67
2022/11/21 03:18:48;;;;;;;59.20;31.70;;;-1.60;99.90;;;;;;5017708;28;20211;-68
2022/11/21 03:21:14;;;;;;;57.70;30.90;;;-1.60;99.90;;;;;;5029192;28;20326;-68
2022/11/21 03:23:41;;;;;;;60.60;31.03;;;-1.60;99.90;;;;;;5029098;28;20246;-67
2022/11/21 03:26:08;;;;;;;60.70;31.63;;;-1.60;99.90;;;;;;5028192;28;20679;-68
2022/11/21 03:28:34;;;;;;;60.03;29.43;;;-1.60;99.90;;;;;;5027043;28;20675;-68
2022/11/21 03:31:03;;;;;;;56.33;31.67;;;-1.60;99.90;;;;;;5027344;28;20207;-68
2022/11/21 03:33:29;;;;;;;62.47;31.07;;;-1.70;99.90;;;;;;5025477;28;20203;-69
2022/11/21 03:35:56;;;;;;;53.90;30.47;;;-1.70;99.90;;;;;;5026148;28;20211;-68
2022/11/21 03:38:23;;;;;;;63.37;31.73;;;-1.70;99.90;;;;;;5027162;28;20606;-68
2022/11/21 03:40:50;;;;;;;59.07;30.93;;;-1.70;99.90;;;;;;5027855;28;20210;-68
2022/11/21 03:43:16;;;;;;;62.77;32.60;;;-1.80;99.90;;;;;;5027834;28;20264;-68
2022/11/21 03:45:46;;;;;;;60.87;31.03;;;-1.80;99.90;;;;;;5027587;28;20221;-68
2022/11/21 03:48:14;;;;;;;60.97;30.27;;;-1.80;99.90;;;;;;5028146;28;20211;-69
2022/11/21 03:50:43;;;;;;;56.60;30.67;;;-1.80;99.90;;;;;;5027179;28;20209;-68
2022/11/21 03:53:10;;;;;;;60.10;30.93;;;-1.80;99.90;;;;;;5027266;28;20686;-68
2022/11/21 03:55:36;;;;;;;64.27;31.67;;;-1.80;99.90;;;;;;5028277;28;20214;-68
2022/11/21 03:58:03;;;;;;;64.63;31.70;;;-1.80;99.90;;;;;;5028132;28;20206;-68
2022/11/21 04:00:30;;;;;;;60.17;30.17;;;-1.80;99.90;;;;;;5027817;28;20234;-67
2022/11/21 04:02:57;;;;;;;51.50;28.80;;;-1.90;99.90;;;;;;5027548;28;20605;-67
2022/11/21 04:05:25;;;;;;;61.67;32.77;;;-1.80;99.90;;;;;;5028771;28;20202;-68
2022/11/21 04:07:52;;;;;;;57.23;30.10;;;-1.80;99.90;;;;;;5031556;28;20214;-68
2022/11/21 04:10:19;;;;;;;52.73;29.60;;;-1.90;99.90;;;;;;5032255;28;20253;-68
2022/11/21 04:12:46;;;;;;;55.43;31.37;;;-1.80;99.90;;;;;;5033293;28;20280;-66
2022/11/21 04:15:13;;;;;;;57.40;28.90;;;-1.80;99.90;;;;;;5028364;28;20230;-68
2022/11/21 04:17:40;;;;;;;58.27;30.57;;;-1.90;99.90;;;;;;5031698;28;20208;-68
2022/11/21 04:20:07;;;;;;;61.50;31.97;;;-1.90;99.90;;;;;;5030337;28;20214;-69
2022/11/21 04:22:35;;;;;;;59.37;29.67;;;-1.90;99.90;;;;;;5033066;28;20231;-68
2022/11/21 04:25:02;;;;;;;58.40;30.07;;;-1.90;99.90;;;;;;5031541;28;20571;-69
2022/11/21 04:27:29;;;;;;;60.67;31.53;;;-1.90;99.90;;;;;;5030207;28;20218;-68
2022/11/21 04:29:56;;;;;;;56.60;30.23;;;-1.90;99.90;;;;;;5031971;28;20219;-69
2022/11/21 04:32:22;;;;;;;59.57;31.23;;;-1.90;99.90;;;;;;5032224;28;20202;-68
2022/11/21 04:34:49;;;;;;;53.67;28.43;;;-1.90;99.90;;;;;;5030473;28;20214;-68
2022/11/21 04:37:16;;;;;;;57.50;30.93;;;-1.90;99.90;;;;;;5031203;28;20576;-66
2022/11/21 04:39:44;;;;;;;62.20;30.50;;;-2.00;99.90;;;;;;5027429;28;20203;-69
2022/11/21 04:42:11;;;;;;;57.93;29.00;;;-2.00;99.90;;;;;;5024687;28;20229;-68
2022/11/21 04:44:37;;;;;;;57.73;29.67;;;-2.00;99.90;;;;;;5028861;28;20206;-68
2022/11/21 04:47:04;;;;;;;59.07;29.93;;;-1.90;99.90;;;;;;5030395;28;20211;-68
2022/11/21 04:49:31;;;;;;;59.30;30.20;;;-1.90;99.90;;;;;;5031809;28;20233;-67
2022/11/21 04:51:58;;;;;;;56.83;30.03;;;-1.90;99.90;;;;;;5032296;28;20203;-69
2022/11/21 04:54:25;;;;;;;52.13;28.10;;;-1.90;99.90;;;;;;5030637;28;20207;-68
2022/11/21 04:56:53;;;;;;;54.77;28.47;;;-1.90;99.90;;;;;;5030946;28;20242;-67
2022/11/21 04:59:19;;;;;;;53.53;28.40;;;-1.90;99.90;;;;;;5031177;28;20735;-66
2022/11/21 05:01:46;;;;;;;46.87;26.27;;;-1.90;99.90;;;;;;5031058;28;20226;-69
2022/11/21 05:04:13;;;;;;;53.80;28.80;;;-2.00;99.90;;;;;;5030458;28;20234;-66
2022/11/21 05:06:40;;;;;;;56.60;28.40;;;-2.00;99.90;;;;;;5031012;28;20207;-67
2022/11/21 05:09:07;;;;;;;57.63;29.13;;;-2.00;99.90;;;;;;5033407;28;20217;-68
2022/11/21 05:14:19;;;;;;;52.13;29.07;;;-1.90;99.90;;;;;;5028226;28;20238;-67
2022/11/21 05:16:46;;;;;;;55.80;28.97;;;-1.90;99.90;;;;;;5028336;28;20238;-68
2022/11/21 05:19:13;;;;;;;56.73;27.87;;;-1.90;99.90;;;;;;5025698;28;20213;-69
2022/11/21 05:21:40;;;;;;;55.53;31.67;;;-1.90;99.90;;;;;;5028522;28;20788;-68
2022/11/21 05:24:07;;;;;;;56.87;29.40;;;-1.90;99.90;;;;;;5030387;28;20584;-68
2022/11/21 05:26:34;;;;;;;52.70;28.80;;;-1.90;99.90;;;;;;5029367;28;20203;-68
2022/11/21 05:29:01;;;;;;;55.87;29.40;;;-1.90;99.90;;;;;;5028691;28;20210;-66
2022/11/21 05:31:29;;;;;;;61.00;28.90;;;-1.90;99.90;;;;;;5030145;28;20211;-66
2022/11/21 05:33:56;;;;;;;56.30;28.27;;;-1.90;99.90;;;;;;5030778;28;20594;-68
2022/11/21 05:36:22;;;;;;;51.63;28.13;;;-1.90;99.90;;;;;;5029444;28;20620;-67
2022/11/21 05:38:49;;;;;;;53.13;27.70;;;-2.00;99.90;;;;;;5029520;28;20217;-67
2022/11/21 05:41:16;;;;;;;58.20;29.87;;;-1.90;99.90;;;;;;5031713;28;20282;-67
2022/11/21 05:43:44;;;;;;;56.97;29.13;;;-2.00;99.90;;;;;;5029388;28;20226;-68
2022/11/21 05:46:11;;;;;;;56.80;30.07;;;-2.00;99.90;;;;;;5033832;28;20276;-78
2022/11/21 05:48:40;;;;;;;57.40;30.93;;;-2.00;99.90;;;;;;5033040;28;20206;-74
2022/11/21 05:51:08;;;;;;;58.70;30.53;;;-2.10;99.90;;;;;;5028409;28;20206;-73
2022/11/21 05:53:35;;;;;;;52.50;28.87;;;-2.10;99.90;;;;;;5028218;28;20218;-74
2022/11/21 05:56:04;;;;;;;54.90;30.43;;;-2.10;99.90;;;;;;5029958;28;20215;-70
2022/11/21 05:58:31;;;;;;;55.33;30.60;;;-2.10;99.90;;;;;;5029934;28;20464;-72
2022/11/21 06:00:58;;;;;;;55.67;30.90;;;-2.10;99.90;;;;;;5024922;28;20230;-74
2022/11/21 06:03:27;;;;;;;60.57;30.30;;;-2.10;99.90;;;;;;5031486;28;20223;-73
2022/11/21 06:05:59;;;;;;;59.33;30.33;;;-2.10;99.90;;;;;;5031358;28;20211;-70
2022/11/21 06:08:26;;;;;;;60.07;30.10;;;-2.10;99.90;;;;;;5032909;28;20221;-70
2022/11/21 06:10:54;;;;;;;55.83;30.17;;;-2.10;99.90;;;;;;5032168;28;20215;-72
2022/11/21 06:13:24;;;;;;;57.67;30.10;;;-2.10;99.90;;;;;;5029825;28;20203;-70
2022/11/21 06:15:56;;;;;;;63.10;31.20;;;-2.00;99.90;;;;;;5026922;28;20238;-70
2022/11/21 06:18:23;;;;;;;58.53;31.07;;;-2.00;99.90;;;;;;5030882;28;20233;-69
2022/11/21 06:20:50;;;;;;;58.67;29.37;;;-2.00;99.90;;;;;;5026548;28;20214;-66
2022/11/21 06:23:18;;;;;;;55.93;28.47;;;-2.00;99.90;;;;;;5027131;28;20227;-69
2022/11/21 06:25:45;;;;;;;57.53;29.33;;;-2.10;99.90;;;;;;5028221;28;20222;-69
2022/11/21 06:28:12;;;;;;;57.10;30.20;;;-2.10;99.90;;;;;;5033880;28;20659;-66
2022/11/21 06:30:39;;;;;;;60.03;30.40;;;-2.10;99.90;;;;;;5042370;28;20206;-72
2022/11/21 06:33:07;;;;;;;56.30;29.17;;;-2.00;99.90;;;;;;5040617;28;20233;-66
2022/11/21 06:35:37;;;;;;;57.97;28.47;;;-2.00;99.90;;;;;;5035147;28;20209;-67
2022/11/21 06:38:04;;;;;;;54.67;28.70;;;-2.10;99.90;;;;;;5028405;28;20260;-68
2022/11/21 06:40:32;;;;;;;56.67;28.50;;;-2.00;99.90;;;;;;5029681;28;20214;-68
2022/11/21 06:42:59;;;;;;;60.30;27.93;;;-2.00;99.90;;;;;;5027651;28;20225;-69
2022/11/21 06:45:26;;;;;;;60.07;29.77;;;-1.90;99.90;;;;;;5029449;28;20215;-68
2022/11/21 06:47:53;;;;;;;60.93;29.80;;;-1.90;99.90;;;;;;5028083;28;20297;-68
2022/11/21 06:50:19;;;;;;;55.53;28.67;;;-1.90;99.90;;;;;;5027038;28;20214;-68
2022/11/21 06:52:46;;;;;;;53.60;29.23;;;-1.90;99.90;;;;;;5026759;28;20199;-68
2022/11/21 06:55:14;;;;;;;55.60;29.17;;;-1.90;99.90;;;;;;5024043;28;20659;-68
2022/11/21 06:57:42;;;;;;;64.30;30.10;;;-1.90;99.90;;;;;;5025967;28;20218;-69
2022/11/21 07:00:10;;;;;;;53.27;28.50;;;-1.80;99.90;;;;;;5025118;28;20589;-68
2022/11/21 07:02:36;;;;;;;52.80;28.13;;;-1.70;99.90;;;;;;5029092;28;20222;-69
2022/11/21 07:05:03;;;;;;;53.70;27.67;;;-1.50;99.90;;;;;;5029124;28;20206;-69
2022/11/21 07:07:30;;;;;;;52.00;27.43;;;-1.40;99.90;;;;;;5029027;28;20202;-69
2022/11/21 07:09:57;;;;;;;47.07;27.00;;;-1.20;99.90;;;;;;5034486;28;20215;-70
2022/11/21 07:15:10;;;;;;;50.57;27.33;;;-1.00;99.90;;;;;;5021166;28;20241;-68
2022/11/21 07:17:37;;;;;;;50.67;27.53;;;-0.80;99.90;;;;;;5021987;28;20685;-72
2022/11/21 07:20:06;;;;;;;46.40;24.90;;;-0.70;99.90;;;;;;5024234;28;20199;-70
2022/11/21 07:22:33;;;;;;;46.83;25.20;;;-0.50;99.90;;;;;;5030762;28;20233;-70
2022/11/21 07:24:59;;;;;;;48.40;25.27;;;-0.40;99.90;;;;;;5025359;28;20223;-70
2022/11/21 07:27:26;;;;;;;44.77;24.13;;;-0.20;99.90;;;;;;5026432;28;20304;-70
2022/11/21 07:29:53;;;;;;;49.40;25.03;;;-0.10;99.90;;;;;;5028804;28;20689;-71
2022/11/21 07:32:21;;;;;;;42.03;23.93;;;0.00;99.90;;;;;;5020115;28;20211;-70
2022/11/21 07:34:48;;;;;;;45.50;24.37;;;0.10;99.90;;;;;;5023464;28;20206;-72
2022/11/21 07:37:15;;;;;;;50.10;25.40;;;0.20;99.90;;;;;;5025534;28;20672;-72
2022/11/21 07:39:41;;;;;;;47.40;25.07;;;0.30;99.90;;;;;;5023477;28;20554;-71
2022/11/21 07:42:08;;;;;;;47.30;25.40;;;0.40;99.90;;;;;;5029940;28;20214;-72
2022/11/21 07:44:35;;;;;;;50.13;28.52;;;0.60;99.90;;;;;;5024106;28;21059;-70
2022/11/21 07:47:02;;;;;;;49.00;25.37;;;0.80;99.90;;;;;;5028838;28;20267;-77
2022/11/21 07:49:30;;;;;;;39.93;21.97;;;1.00;99.90;;;;;;5026128;28;20682;-71
2022/11/21 07:51:58;;;;;;;39.73;22.03;;;1.10;99.90;;;;;;5026599;28;20659;-70
2022/11/21 07:54:24;;;;;;;45.57;27.60;;;1.20;99.90;;;;;;5024348;28;20549;-71
2022/11/21 07:56:51;;;;;;;40.33;23.67;;;1.40;99.90;;;;;;5029249;28;20206;-71
2022/11/21 07:59:18;;;;;;;41.60;23.50;;;1.50;99.90;;;;;;5032733;28;20230;-69
2022/11/21 08:01:46;;;;;;;45.20;23.83;;;1.70;99.90;;;;;;5030184;28;20206;-69
2022/11/21 08:04:13;;;;;;;41.07;22.50;;;1.90;99.90;;;;;;5030640;28;20234;-69
2022/11/21 08:06:41;;;;;;;48.53;28.00;;;2.00;99.90;;;;;;5026805;28;20457;-73
2022/11/21 08:09:08;;;;;;;40.50;23.13;;;2.10;99.90;;;;;;5025776;28;20597;-70
2022/11/21 08:11:36;;;;;;;40.33;21.37;;;2.30;99.90;;;;;;5025413;28;20206;-71
2022/11/21 08:14:03;;;;;;;40.90;21.97;;;2.50;99.90;;;;;;5029109;28;20701;-71
2022/11/21 08:16:31;;;;;;;40.80;21.23;;;2.70;99.90;;;;;;5026289;28;20203;-71
2022/11/21 08:18:58;;;;;;;35.87;20.23;;;2.90;99.90;;;;;;5026175;28;20217;-71
2022/11/21 08:21:25;;;;;;;39.87;19.93;;;3.00;99.90;;;;;;5027259;28;20202;-71
2022/11/21 08:23:54;;;;;;;41.13;23.80;;;3.30;99.90;;;;;;5026812;28;20234;-70
2022/11/21 08:26:21;;;;;;;39.43;20.83;;;3.40;99.90;;;;;;5025453;28;20225;-71
2022/11/21 08:28:49;;;;;;;36.50;21.03;;;3.50;99.90;;;;;;5029601;28;20215;-70
2022/11/21 08:31:16;;;;;;;38.93;19.43;;;3.70;99.90;;;;;;5027781;28;20211;-71
2022/11/21 08:33:42;;;;;;;30.53;18.97;;;4.30;99.90;;;;;;5027498;28;20199;-71
2022/11/21 08:36:12;;;;;;;36.57;20.50;;;4.80;99.90;;;;;;5029253;28;20199;-71
2022/11/21 08:38:39;;;;;;;35.43;22.20;;;5.60;99.90;;;;;;5029142;28;20207;-71
2022/11/21 08:43:51;;;;;;;39.30;22.03;;;9.30;99.90;;;;;;5029468;28;20397;-68
2022/11/21 08:46:17;;;;;;;32.50;21.03;;;11.40;95.00;;;;;;5029304;28;20206;-70
2022/11/21 08:48:44;;;;;;;34.13;21.87;;;13.20;85.40;;;;;;5031011;28;20613;-72
2022/11/21 08:51:11;;;;;;;34.63;21.80;;;14.90;72.70;;;;;;5031678;28;20198;-73
2022/11/21 08:53:38;;;;;;;32.97;21.63;;;16.50;62.60;;;;;;5033154;28;21953;-67
2022/11/21 08:56:05;;;;;;;30.80;21.47;;;17.60;56.20;;;;;;5039936;28;20591;-70
2022/11/21 08:58:33;;;;;;;34.90;21.97;;;18.20;51.00;;;;;;5039902;28;20225;-73
2022/11/21 09:01:00;;;;;;;33.60;24.23;;;18.80;49.20;;;;;;5046852;28;20298;-70
2022/11/21 09:03:27;;;;;;;32.07;22.90;;;18.90;46.70;;;;;;5048083;28;20794;-70
2022/11/21 09:05:56;;;;;;;33.13;23.67;;;18.80;46.20;;;;;;5051050;28;20206;-69
2022/11/21 09:08:23;;;;;;;36.10;24.23;;;19.20;45.20;;;;;;5051055;28;20254;-71
2022/11/21 09:10:50;;;;;;;35.17;24.00;;;19.10;43.20;;;;;;5041119;28;20213;-70
2022/11/21 09:13:17;;;;;;;30.52;22.45;;;19.10;43.80;;;;;;5034836;28;20195;-69
2022/11/21 09:18:29;;;;;;;30.70;22.40;;;18.00;44.00;;;;;;5030006;28;20198;-69
2022/11/21 09:20:56;;;;;;;31.30;22.63;;;17.90;44.20;;;;;;5030985;28;20657;-68
2022/11/21 09:23:23;;;;;;;32.10;22.47;;;18.30;44.40;;;;;;5030553;28;20233;-68
2022/11/21 09:25:49;;;;;;;31.58;23.80;;;19.00;43.00;;;;;;5025217;28;20594;-67
2022/11/21 09:28:16;;;;;;;32.22;22.10;;;19.50;42.60;;;;;;5028421;28;20206;-68
2022/11/21 09:30:45;;;;;;;30.55;22.48;;;19.90;40.50;;;;;;5032009;28;20206;-76
2022/11/21 09:33:13;;;;;;;35.90;23.58;;;18.80;39.00;;;;;;5030356;28;20198;-68
2022/11/21 09:35:40;;;;;;;31.53;21.93;;;16.80;39.80;;;;;;5022445;28;20211;-69
2022/11/21 09:38:07;;;;;;;28.43;20.00;;;15.80;43.50;;;;;;5026184;28;20206;-72
2022/11/21 09:40:35;;;;;;;28.93;21.10;;;15.90;45.50;;;;;;5028809;28;20213;-70
2022/11/21 09:43:26;;;;;;;30.90;21.27;;;17.00;44.00;;;;;;5027826;28;20265;-71
2022/11/21 09:45:58;;;;;;;28.95;20.83;;;17.50;42.80;;;;;;5027901;28;20553;-67
2022/11/21 09:48:30;;;;;;;29.02;21.77;;;18.10;41.60;;;;;;5032966;28;20203;-75
2022/11/21 09:51:03;;;;;;;35.17;22.47;;;18.50;41.10;;;;;;5032978;28;20215;-73
2022/11/21 09:53:34;;;;;;;33.33;24.13;;;18.30;39.70;;;;;;5042735;28;20659;-71
2022/11/21 09:56:06;;;;;;;35.83;24.60;;;17.90;40.90;;;;;;5036820;28;20290;-71
2022/11/21 09:58:38;;;;;;;34.13;22.95;;;18.20;42.80;;;;;;5042433;28;20195;-71
2022/11/21 10:01:11;;;;;;;33.28;23.58;;;19.20;41.70;;;;;;5045027;28;20336;-70
2022/11/21 10:03:42;;;;;;;34.13;24.35;;;19.90;40.10;;;;;;5043758;28;20285;-70
2022/11/21 10:06:19;;;;;;;31.10;22.90;;;20.50;39.40;;;;;;5044598;28;20210;-71
2022/11/21 10:08:56;;;;;;;34.33;27.02;;;21.30;38.90;;;;;;5037573;28;20446;-74
2022/11/21 10:11:33;;;;;;;34.90;26.05;;;21.60;37.10;;;;;;5043791;28;20266;-73
2022/11/21 10:14:12;;;;;;;32.85;24.95;;;21.30;37.60;;;;;;5035620;28;20222;-70
2022/11/21 10:16:47;;;;;;;36.17;26.02;;;20.90;38.20;;;;;;5026274;28;20693;-71
2022/11/21 10:19:48;;;;;;;33.45;23.98;;;21.30;37.90;;;;;;5033744;28;20690;-69
2022/11/21 10:22:38;;;;;;;34.03;24.75;;;21.60;37.30;;;;;;5026167;28;20216;-69
2022/11/21 10:25:13;;;;;;;30.20;23.50;;;22.30;37.50;;;;;;5030315;28;20218;-69
2022/11/21 10:27:49;;;;;;;34.25;25.77;;;23.20;36.60;;;;;;5032871;28;20217;-67
2022/11/21 10:30:19;;;;;;;30.67;24.73;;;23.60;35.80;;;;;;5030596;28;20290;-68
2022/11/21 10:32:49;;;;;;;29.92;23.10;;;23.80;35.30;;;;;;5028698;28;20210;-71
2022/11/21 10:35:19;;;;;;;32.28;24.45;;;24.40;35.30;;;;;;5025413;28;20230;-70
2022/11/21 10:37:50;;;;;;;32.92;25.10;;;24.90;34.10;;;;;;5027261;28;20690;-71
2022/11/21 10:40:32;;;;;;;28.38;23.30;;;25.10;34.00;;;;;;5027211;28;20262;-70
2022/11/21 10:45:15;;;;;;;35.95;23.65;;;25.00;33.50;;;;;;5031201;28;20221;-74
2022/11/21 10:45:52;;;;;;;29.65;22.88;;;25.10;33.80;;;;;;5028977;28;20210;-70
2022/11/21 10:48:20;;;;;;;29.60;23.00;;;25.60;33.20;;;;;;5034141;28;20217;-69
2022/11/21 10:51:14;;;;;;;25.33;21.52;;;25.80;32.40;;;;;;5034886;28;20215;-70
2022/11/21 10:56:27;;;;;;;28.30;21.95;;;26.10;31.90;;;;;;5028319;28;20205;-72
2022/11/21 10:58:56;;;;;;;26.02;21.10;;;26.70;31.20;;;;;;5036408;28;20210;-69
2022/11/21 11:01:26;;;;;;;28.45;20.50;;;26.50;31.00;;;;;;5031804;28;20217;-70
2022/11/21 11:04:22;;;;;;;26.02;20.42;;;26.00;30.80;;;;;;5038943;28;20240;-73
2022/11/21 11:06:48;;;;;;;25.70;20.35;;;25.70;31.60;;;;;;5040966;28;20216;-73
2022/11/21 11:09:23;;;;;;;23.05;19.83;;;25.60;31.40;;;;;;5037002;28;20210;-69
2022/11/21 11:11:50;;;;;;;25.77;20.75;;;25.50;31.60;;;;;;5042267;28;20202;-71
2022/11/21 11:14:30;;;;;;;24.35;20.20;;;25.50;31.80;;;;;;5033708;28;20251;-69
2022/11/21 11:16:56;;;;;;;25.55;20.70;;;25.20;31.00;;;;;;5030680;28;20214;-69
2022/11/21 11:19:27;;;;;;;26.27;19.65;;;23.80;31.00;;;;;;5031811;28;20212;-70
2022/11/21 11:21:55;;;;;;;29.55;22.33;;;22.80;32.90;;;;;;5031044;28;20221;-72
2022/11/21 11:24:25;;;;;;;25.88;21.60;;;21.90;33.50;;;;;;5037172;28;20572;-69
2022/11/21 11:26:57;;;;;;;26.95;21.25;;;20.80;33.40;;;;;;5038288;28;20211;-71
2022/11/21 11:29:24;;;;;;;24.50;19.60;;;19.20;34.40;;;;;;5036303;28;20684;-71
2022/11/21 11:31:55;;;;;;;28.80;20.63;;;17.60;36.70;;;;;;5039371;28;20215;-72
2022/11/21 11:34:26;;;;;;;28.85;19.80;;;15.70;38.00;;;;;;5038430;28;20270;-71
2022/11/21 11:37:08;;;;;;;29.63;20.67;;;14.20;40.20;;;;;;5038265;28;20213;-74
2022/11/21 11:39:41;;;;;;;29.13;20.40;;;12.80;42.30;;;;;;5035617;28;20210;-72
2022/11/21 11:48:34;;;;;;;28.17;19.30;;;9.30;50.50;;;;;;5028659;28;20193;-72
2022/11/21 11:51:06;;;;;;;32.93;20.00;;;8.60;52.30;;;;;;5033240;28;20206;-71
2022/11/21 11:53:38;;;;;;;30.87;19.70;;;7.90;54.40;;;;;;5030019;28;20201;-70
2022/11/21 11:56:11;;;;;;;33.17;19.27;;;7.30;55.90;;;;;;5031187;28;20210;-70
2022/11/21 11:58:44;;;;;;;33.63;18.57;;;6.80;57.80;;;;;;5028776;28;20210;-70
2022/11/21 12:01:14;;;;;;;31.73;18.90;;;6.40;59.40;;;;;;5023740;28;20232;-70
2022/11/21 12:03:46;;;;;;;32.10;18.53;;;5.90;60.30;;;;;;5032063;28;20705;-72
2022/11/21 12:06:19;;;;;;;28.90;18.33;;;5.60;62.40;;;;;;5026136;28;20569;-72
2022/11/21 12:08:53;;;;;;;30.87;19.83;;;5.30;64.30;;;;;;5037367;28;20214;-71
2022/11/21 12:17:26;;;;;;;33.30;20.50;;;4.70;69.50;;;;;;5027251;28;20220;-72
2022/11/21 12:19:54;;;;;;;31.10;19.87;;;4.60;70.50;;;;;;5029821;28;20214;-74
2022/11/21 12:22:22;;;;;;;34.80;19.80;;;4.60;72.10;;;;;;5020680;28;20207;-73
2022/11/21 12:24:49;;;;;;;34.17;19.10;;;4.60;73.30;;;;;;5027206;28;20695;-72
2022/11/21 12:27:27;;;;;;;33.67;19.13;;;4.50;74.10;;;;;;5030459;28;20221;-71
2022/11/21 12:30:08;;;;;;;34.50;20.17;;;4.50;75.20;;;;;;5025356;28;20497;-71
2022/11/21 12:32:54;;;;;;;38.10;19.00;;;4.40;76.60;;;;;;5031393;28;20199;-72
2022/11/21 12:35:35;;;;;;;31.67;18.33;;;4.40;78.40;;;;;;5033113;28;20209;-70
2022/11/21 12:38:15;;;;;;;33.70;19.17;;;4.30;80.30;;;;;;5023151;28;20198;-68
2022/11/21 12:40:52;;;;;;;32.40;18.33;;;4.30;82.50;;;;;;5026615;28;20614;-68
2022/11/21 12:43:32;;;;;;;33.53;18.57;;;4.20;84.80;;;;;;5032185;28;20224;-69
2022/11/21 12:46:07;;;;;;;34.70;18.37;;;4.10;89.30;;;;;;5031699;28;20592;-70
2022/11/21 12:54:54;;;;;;;32.10;17.87;;;4.00;93.50;;;;;;5027698;28;20684;-71
2022/11/21 12:57:26;;;;;;;31.90;17.97;;;4.00;95.30;;;;;;5031808;28;20202;-72
2022/11/21 13:00:02;;;;;;;34.80;18.90;;;4.00;96.50;;;;;;5032695;28;20237;-69
2022/11/21 13:02:38;;;;;;;35.87;19.50;;;4.00;97.90;;;;;;5026764;28;20225;-75
2022/11/21 13:05:10;;;;;;;33.37;18.03;;;4.00;99.30;;;;;;5030572;28;20214;-74
2022/11/21 13:07:37;;;;;;;29.27;18.07;;;3.90;99.90;;;;;;5032498;28;20538;-78
2022/11/21 13:10:13;;;;;;;33.20;19.00;;;3.90;99.90;;;;;;5031055;28;20214;-77